Time;durP1;ratioP1;P1;durP2;ratioP2;P2;SDS_P1;SDS_P2;PMS_P1;PMS_P2;Temp;Humidity;BMP_temperature;BMP_pressure;BME280_temperature;BME280_humidity;BME280_pressure;Samples;Min_cycle;Max_cycle;Signal;HPM_P1;HPM_P2
2023/11/12 00:02:22;;;;;;;1.00;0.80;;;;;;;;;;5113910;28;20696;-83
2023/11/12 00:04:48;;;;;;;1.90;0.70;;;;;;;;;;5113590;28;20264;-84
2023/11/12 00:07:17;;;;;;;2.10;0.60;;;;;;;;;;5113664;28;20200;-84
2023/11/12 00:09:44;;;;;;;0.60;0.60;;;;;;;;;;5113246;28;20218;-83
2023/11/12 00:12:11;;;;;;;0.87;0.87;;;;;;;;;;5113662;28;20226;-83
2023/11/12 00:14:40;;;;;;;1.13;0.87;;;;;;;;;;5096766;28;20204;-83
2023/11/12 00:17:07;;;;;;;1.37;1.13;;;;;;;;;;5103739;28;20305;-83
2023/11/12 00:19:34;;;;;;;0.73;0.73;;;;;;;;;;5099485;28;20229;-84
2023/11/12 00:22:05;;;;;;;1.33;1.23;;;;;;;;;;5113783;28;20207;-82
2023/11/12 00:24:33;;;;;;;1.77;1.30;;;;;;;;;;5099755;28;20200;-84
2023/11/12 00:27:01;;;;;;;1.00;0.90;;;;;;;;;;5113665;28;20269;-84
2023/11/12 00:29:28;;;;;;;0.77;0.77;;;;;;;;;;5107149;28;20243;-83
2023/11/12 00:31:55;;;;;;;1.47;1.10;;;;;;;;;;5105337;28;20210;-83
2023/11/12 00:34:23;;;;;;;2.97;1.20;;;;;;;;;;5099760;28;20208;-83
2023/11/12 00:36:50;;;;;;;2.20;2.00;;;;;;;;;;5113252;28;20211;-82
2023/11/12 00:39:17;;;;;;;1.80;1.70;;;;;;;;;;5099111;28;20210;-84
2023/11/12 00:41:45;;;;;;;0.90;0.90;;;;;;;;;;5113361;28;20247;-83
2023/11/12 00:44:12;;;;;;;0.77;0.77;;;;;;;;;;5112712;28;20207;-83
2023/11/12 00:46:40;;;;;;;0.87;0.87;;;;;;;;;;5113640;28;20239;-84
2023/11/12 00:49:07;;;;;;;1.00;0.90;;;;;;;;;;5105300;28;20208;-84
2023/11/12 00:51:34;;;;;;;0.70;0.70;;;;;;;;;;5106905;28;20223;-83
2023/11/12 00:54:01;;;;;;;2.27;0.80;;;;;;;;;;5104957;28;20295;-83
2023/11/12 00:56:28;;;;;;;1.90;0.87;;;;;;;;;;5094310;28;20293;-83
2023/11/12 00:58:57;;;;;;;0.70;0.70;;;;;;;;;;5111187;28;20696;-82
2023/11/12 01:01:23;;;;;;;1.07;0.97;;;;;;;;;;5112369;28;20227;-83
2023/11/12 01:03:50;;;;;;;0.80;0.80;;;;;;;;;;5112487;28;20678;-83
2023/11/12 01:06:17;;;;;;;3.83;1.00;;;;;;;;;;5098815;28;20682;-83
2023/11/12 01:08:44;;;;;;;0.87;0.87;;;;;;;;;;5112379;28;20211;-83
2023/11/12 01:11:10;;;;;;;1.30;0.97;;;;;;;;;;5112055;28;20716;-82
2023/11/12 01:13:37;;;;;;;0.70;0.70;;;;;;;;;;5112454;28;20205;-83
2023/11/12 01:16:06;;;;;;;0.73;0.73;;;;;;;;;;5112347;28;20209;-84
2023/11/12 01:18:35;;;;;;;0.83;0.80;;;;;;;;;;5103908;28;20200;-84
2023/11/12 01:21:03;;;;;;;0.87;0.87;;;;;;;;;;5106980;28;20230;-83
2023/11/12 01:23:30;;;;;;;1.10;0.90;;;;;;;;;;5112174;28;20742;-83
2023/11/12 01:25:57;;;;;;;0.73;0.73;;;;;;;;;;5112256;28;20252;-82
2023/11/12 01:28:24;;;;;;;0.70;0.70;;;;;;;;;;5112095;28;20697;-82
2023/11/12 01:30:51;;;;;;;0.80;0.80;;;;;;;;;;5111895;28;20705;-83
2023/11/12 01:33:19;;;;;;;1.80;0.80;;;;;;;;;;5112323;28;20207;-83
2023/11/12 01:35:46;;;;;;;2.33;1.10;;;;;;;;;;5094922;28;20235;-83
2023/11/12 01:38:13;;;;;;;3.17;1.10;;;;;;;;;;5091633;28;20196;-83
2023/11/12 01:40:41;;;;;;;1.67;0.83;;;;;;;;;;5109034;28;20231;-83
2023/11/12 01:43:08;;;;;;;1.43;0.90;;;;;;;;;;5111700;28;20227;-84
2023/11/12 01:45:35;;;;;;;2.53;0.87;;;;;;;;;;5107637;28;20211;-84
2023/11/12 01:48:05;;;;;;;0.70;0.70;;;;;;;;;;5103099;28;20199;-83
2023/11/12 01:50:33;;;;;;;0.87;0.87;;;;;;;;;;5106579;28;20215;-83
2023/11/12 01:53:00;;;;;;;2.03;1.67;;;;;;;;;;5092103;28;20582;-82
2023/11/12 01:55:28;;;;;;;1.20;0.87;;;;;;;;;;5110191;28;20207;-84
2023/11/12 01:57:54;;;;;;;0.80;0.80;;;;;;;;;;5098945;28;20243;-83
2023/11/12 02:00:22;;;;;;;0.97;0.97;;;;;;;;;;5110948;28;20255;-83
2023/11/12 02:02:49;;;;;;;0.77;0.77;;;;;;;;;;5111392;28;20673;-84
2023/11/12 02:05:17;;;;;;;0.90;0.90;;;;;;;;;;5111696;28;20213;-83
2023/11/12 02:07:47;;;;;;;1.00;1.00;;;;;;;;;;5111637;28;20242;-83
2023/11/12 02:10:15;;;;;;;2.13;1.03;;;;;;;;;;5111726;28;20278;-83
2023/11/12 02:12:44;;;;;;;1.60;1.07;;;;;;;;;;5111574;28;20235;-83
2023/11/12 02:15:14;;;;;;;2.30;1.27;;;;;;;;;;5111418;28;20208;-84
2023/11/12 02:17:41;;;;;;;0.97;0.70;;;;;;;;;;5098064;28;20281;-83
2023/11/12 02:20:10;;;;;;;2.70;1.20;;;;;;;;;;5111566;28;20601;-84
2023/11/12 02:22:37;;;;;;;0.80;0.80;;;;;;;;;;5111096;28;20207;-84
2023/11/12 02:25:06;;;;;;;2.00;0.90;;;;;;;;;;5102825;28;20231;-83
2023/11/12 02:27:33;;;;;;;0.90;0.90;;;;;;;;;;5107476;28;20627;-84
2023/11/12 02:30:00;;;;;;;0.97;0.93;;;;;;;;;;5111596;28;20207;-83
2023/11/12 02:32:30;;;;;;;0.90;0.90;;;;;;;;;;5112900;28;20663;-83
2023/11/12 02:34:58;;;;;;;3.47;1.87;;;;;;;;;;5115171;28;20191;-83
2023/11/12 02:37:24;;;;;;;1.10;0.90;;;;;;;;;;5115537;28;20211;-83
2023/11/12 02:39:51;;;;;;;0.73;0.73;;;;;;;;;;5115470;28;20200;-83
2023/11/12 02:42:20;;;;;;;0.70;0.70;;;;;;;;;;5111558;28;20227;-83
2023/11/12 02:44:47;;;;;;;1.03;0.70;;;;;;;;;;5105849;28;20211;-83
2023/11/12 02:47:13;;;;;;;1.00;0.90;;;;;;;;;;5114751;28;20256;-83
2023/11/12 02:49:51;;;;;;;0.90;0.90;;;;;;;;;;5115126;28;20204;-84
2023/11/12 02:52:18;;;;;;;1.00;0.90;;;;;;;;;;5114984;28;20208;-84
2023/11/12 02:54:45;;;;;;;0.90;0.90;;;;;;;;;;5114960;28;20208;-84
2023/11/12 02:57:11;;;;;;;2.03;1.10;;;;;;;;;;5101404;28;20199;-84
2023/11/12 02:59:40;;;;;;;3.77;1.27;;;;;;;;;;5114787;28;20210;-84
2023/11/12 03:02:07;;;;;;;0.90;0.90;;;;;;;;;;5115295;28;20215;-84
2023/11/12 03:04:34;;;;;;;1.40;1.00;;;;;;;;;;5101321;28;20196;-84
2023/11/12 03:07:01;;;;;;;1.37;1.10;;;;;;;;;;5107334;28;20192;-84
2023/11/12 03:09:28;;;;;;;1.60;0.83;;;;;;;;;;5094883;28;20283;-84
2023/11/12 03:11:55;;;;;;;2.80;0.90;;;;;;;;;;5114426;28;20211;-84
2023/11/12 03:14:22;;;;;;;1.17;0.80;;;;;;;;;;5114716;28;20199;-84
2023/11/12 03:16:50;;;;;;;4.10;1.10;;;;;;;;;;5114860;28;20579;-84
2023/11/12 03:19:18;;;;;;;1.57;1.47;;;;;;;;;;5115019;28;20210;-84
2023/11/12 03:21:49;;;;;;;2.53;1.20;;;;;;;;;;5114406;28;20276;-84
2023/11/12 03:24:15;;;;;;;1.20;1.10;;;;;;;;;;5114488;28;20301;-83
2023/11/12 03:26:42;;;;;;;1.50;1.40;;;;;;;;;;5114409;28;21278;-84
2023/11/12 03:29:09;;;;;;;2.10;1.87;;;;;;;;;;5114623;28;20247;-84
2023/11/12 03:31:36;;;;;;;1.57;1.10;;;;;;;;;;5114279;28;20214;-84
2023/11/12 03:34:04;;;;;;;1.60;1.40;;;;;;;;;;5114415;28;20211;-83
2023/11/12 03:36:32;;;;;;;0.90;0.90;;;;;;;;;;5114691;28;20633;-84
2023/11/12 03:38:59;;;;;;;4.13;3.60;;;;;;;;;;5113729;28;20203;-84
2023/11/12 03:41:26;;;;;;;9.03;5.87;;;;;;;;;;5114161;28;20310;-84
2023/11/12 03:43:53;;;;;;;2.40;2.10;;;;;;;;;;5099860;28;20199;-84
2023/11/12 03:46:20;;;;;;;3.50;3.17;;;;;;;;;;5102874;28;20223;-83
2023/11/12 03:48:47;;;;;;;2.50;1.77;;;;;;;;;;5098948;28;20292;-84
2023/11/12 03:51:15;;;;;;;1.00;1.00;;;;;;;;;;5114299;28;20211;-84
2023/11/12 03:53:42;;;;;;;1.50;1.10;;;;;;;;;;5108616;28;20203;-84
2023/11/12 03:56:08;;;;;;;1.30;1.20;;;;;;;;;;5106294;28;20210;-84
2023/11/12 03:58:36;;;;;;;3.40;1.70;;;;;;;;;;5109341;28;20201;-84
2023/11/12 04:01:04;;;;;;;1.50;1.40;;;;;;;;;;5093872;28;20224;-83
2023/11/12 04:03:30;;;;;;;0.70;0.70;;;;;;;;;;5112505;28;20207;-83
2023/11/12 04:05:57;;;;;;;2.50;1.60;;;;;;;;;;5113268;28;20208;-84
2023/11/12 04:08:25;;;;;;;6.13;1.43;;;;;;;;;;5100202;28;20639;-83
2023/11/12 04:10:52;;;;;;;1.43;1.30;;;;;;;;;;5100947;28;20208;-82
2023/11/12 04:13:19;;;;;;;0.90;0.90;;;;;;;;;;5106858;28;20663;-84
2023/11/12 04:15:46;;;;;;;0.90;0.90;;;;;;;;;;5105878;28;20211;-83
2023/11/12 04:18:13;;;;;;;1.13;0.90;;;;;;;;;;5099522;28;20646;-84
2023/11/12 04:20:39;;;;;;;0.90;0.90;;;;;;;;;;5113461;28;20234;-85
2023/11/12 04:23:06;;;;;;;1.80;0.90;;;;;;;;;;5113037;28;20203;-85
2023/11/12 04:25:34;;;;;;;1.03;0.90;;;;;;;;;;5113265;28;20191;-84
2023/11/12 04:28:04;;;;;;;1.03;1.03;;;;;;;;;;5113062;28;20210;-84
2023/11/12 04:30:32;;;;;;;2.00;1.30;;;;;;;;;;5111923;28;20203;-85
2023/11/12 04:32:59;;;;;;;3.57;1.07;;;;;;;;;;5113456;28;20268;-84
2023/11/12 04:35:26;;;;;;;1.20;1.10;;;;;;;;;;5113269;28;20239;-84
2023/11/12 04:37:53;;;;;;;1.30;1.20;;;;;;;;;;5105419;28;20212;-84
2023/11/12 04:40:20;;;;;;;2.37;2.17;;;;;;;;;;5095060;28;20204;-84
2023/11/12 04:42:49;;;;;;;2.87;2.20;;;;;;;;;;5113118;28;20339;-84
2023/11/12 04:45:17;;;;;;;2.00;1.73;;;;;;;;;;5113024;28;20207;-85
2023/11/12 04:47:44;;;;;;;4.27;1.60;;;;;;;;;;5112531;28;20216;-84
2023/11/12 04:50:11;;;;;;;1.20;1.10;;;;;;;;;;5112642;28;20204;-84
2023/11/12 04:52:39;;;;;;;1.20;1.20;;;;;;;;;;5092870;28;20204;-84
2023/11/12 04:55:07;;;;;;;1.00;1.00;;;;;;;;;;5106564;28;20207;-85
2023/11/12 04:57:34;;;;;;;0.80;0.80;;;;;;;;;;5105384;28;20209;-84
2023/11/12 05:00:05;;;;;;;4.90;1.20;;;;;;;;;;5109094;28;20223;-83
2023/11/12 05:02:31;;;;;;;1.67;1.50;;;;;;;;;;5112826;28;20227;-83
2023/11/12 05:04:59;;;;;;;1.63;1.37;;;;;;;;;;5111731;28;20206;-83
2023/11/12 05:07:25;;;;;;;2.37;1.90;;;;;;;;;;5112331;28;20211;-83
2023/11/12 05:09:52;;;;;;;1.63;1.47;;;;;;;;;;5112061;28;20210;-83
2023/11/12 05:12:20;;;;;;;3.23;2.43;;;;;;;;;;5098802;28;20201;-84
2023/11/12 05:14:47;;;;;;;1.70;1.03;;;;;;;;;;5103247;28;20196;-84
2023/11/12 05:17:15;;;;;;;1.47;1.03;;;;;;;;;;5108117;28;20207;-84
2023/11/12 05:19:42;;;;;;;3.13;1.40;;;;;;;;;;5112387;28;20214;-84
2023/11/12 05:22:09;;;;;;;1.07;1.07;;;;;;;;;;5112309;28;20230;-83
2023/11/12 05:24:37;;;;;;;1.50;1.07;;;;;;;;;;5101865;28;20224;-84
2023/11/12 05:27:04;;;;;;;1.27;1.03;;;;;;;;;;5095358;28;20684;-83
2023/11/12 05:29:31;;;;;;;1.10;1.10;;;;;;;;;;5101918;28;20211;-84
2023/11/12 05:31:58;;;;;;;1.37;1.10;;;;;;;;;;5109593;28;20209;-83
2023/11/12 05:34:26;;;;;;;1.33;1.10;;;;;;;;;;5112347;28;20211;-84
2023/11/12 05:36:53;;;;;;;1.40;1.20;;;;;;;;;;5098445;28;20207;-84
2023/11/12 05:39:20;;;;;;;1.10;1.10;;;;;;;;;;5112200;28;20208;-84
2023/11/12 05:41:47;;;;;;;0.80;0.80;;;;;;;;;;5111841;28;20250;-83
2023/11/12 05:44:14;;;;;;;1.70;1.00;;;;;;;;;;5111841;28;20199;-83
2023/11/12 05:46:40;;;;;;;1.50;1.40;;;;;;;;;;5098437;28;20634;-84
2023/11/12 05:49:07;;;;;;;2.83;2.40;;;;;;;;;;5112051;28;20206;-83
2023/11/12 05:51:35;;;;;;;6.73;5.40;;;;;;;;;;5111727;28;20211;-83
2023/11/12 05:54:06;;;;;;;11.00;8.57;;;;;;;;;;5111608;28;20717;-84
2023/11/12 05:56:33;;;;;;;6.90;6.20;;;;;;;;;;5109200;28;20211;-80
2023/11/12 05:59:03;;;;;;;2.73;2.50;;;;;;;;;;5108332;28;20210;-83
2023/11/12 06:01:29;;;;;;;2.23;1.53;;;;;;;;;;5111553;28;20259;-84
2023/11/12 06:03:58;;;;;;;1.00;1.00;;;;;;;;;;5102923;28;20208;-83
2023/11/12 06:06:25;;;;;;;1.13;0.97;;;;;;;;;;5107001;28;20235;-83
2023/11/12 06:08:53;;;;;;;6.70;4.13;;;;;;;;;;5111639;28;20214;-81
2023/11/12 06:11:20;;;;;;;10.63;6.00;;;;;;;;;;5111833;28;20600;-83
2023/11/12 06:13:47;;;;;;;12.47;6.97;;;;;;;;;;5111529;28;20239;-84
2023/11/12 06:16:14;;;;;;;6.03;4.63;;;;;;;;;;5111613;28;20200;-84
2023/11/12 06:18:41;;;;;;;7.43;5.67;;;;;;;;;;5111808;28;20207;-83
2023/11/12 06:21:07;;;;;;;13.17;9.27;;;;;;;;;;5107576;28;20227;-83
2023/11/12 06:23:36;;;;;;;16.07;10.07;;;;;;;;;;5101743;28;20600;-83
2023/11/12 06:26:05;;;;;;;14.13;8.53;;;;;;;;;;5107520;28;20200;-83
2023/11/12 06:28:31;;;;;;;9.33;6.10;;;;;;;;;;5102218;28;20696;-83
2023/11/12 06:30:58;;;;;;;3.67;2.40;;;;;;;;;;5111747;28;20582;-83
2023/11/12 06:33:25;;;;;;;3.97;2.67;;;;;;;;;;5111791;28;20199;-83
2023/11/12 06:35:52;;;;;;;2.13;2.03;;;;;;;;;;5111230;28;20195;-84
2023/11/12 06:38:19;;;;;;;2.47;2.13;;;;;;;;;;5099338;28;20227;-83
2023/11/12 06:40:46;;;;;;;10.87;7.13;;;;;;;;;;5090745;28;20200;-84
2023/11/12 06:43:14;;;;;;;6.60;4.70;;;;;;;;;;5108476;28;20231;-84
2023/11/12 06:45:41;;;;;;;2.43;2.07;;;;;;;;;;5111319;28;20200;-83
2023/11/12 06:48:08;;;;;;;5.83;4.83;;;;;;;;;;5111220;28;20211;-83
2023/11/12 06:50:34;;;;;;;5.20;4.60;;;;;;;;;;5097561;28;20692;-82
2023/11/12 06:53:04;;;;;;;2.07;1.97;;;;;;;;;;5110990;28;20213;-84
2023/11/12 06:55:32;;;;;;;5.63;5.00;;;;;;;;;;5098928;28;20662;-83
2023/11/12 06:57:59;;;;;;;6.20;4.43;;;;;;;;;;5111265;28;20290;-81
2023/11/12 07:00:27;;;;;;;7.03;4.13;;;;;;;;;;5104445;28;20204;-83
2023/11/12 07:02:55;;;;;;;6.27;3.93;;;;;;;;;;5101859;28;20318;-82
2023/11/12 07:05:22;;;;;;;8.07;6.30;;;;;;;;;;5097250;28;20207;-82
2023/11/12 07:07:49;;;;;;;12.33;10.27;;;;;;;;;;5110406;28;20203;-82
2023/11/12 07:10:15;;;;;;;8.33;6.40;;;;;;;;;;5110777;28;20208;-82
2023/11/12 07:12:42;;;;;;;6.93;3.43;;;;;;;;;;5110978;28;20199;-82
2023/11/12 07:15:10;;;;;;;1.87;1.77;;;;;;;;;;5110819;28;20210;-82
2023/11/12 07:17:38;;;;;;;2.70;2.03;;;;;;;;;;5109665;28;20214;-84
2023/11/12 07:20:09;;;;;;;4.30;3.07;;;;;;;;;;5112950;28;20239;-84
2023/11/12 07:22:36;;;;;;;4.30;2.80;;;;;;;;;;5100952;28;20231;-84
2023/11/12 07:25:06;;;;;;;3.20;2.67;;;;;;;;;;5106025;28;20211;-85
2023/11/12 07:27:33;;;;;;;9.27;4.47;;;;;;;;;;5110687;28;20204;-84
2023/11/12 07:30:02;;;;;;;3.80;3.20;;;;;;;;;;5101340;28;20236;-84
2023/11/12 07:32:29;;;;;;;4.17;2.47;;;;;;;;;;5114624;28;20203;-85
2023/11/12 07:34:57;;;;;;;3.83;2.87;;;;;;;;;;5114216;28;20701;-86
2023/11/12 07:37:24;;;;;;;2.30;1.80;;;;;;;;;;5094568;28;20287;-85
2023/11/12 07:39:51;;;;;;;0.97;0.93;;;;;;;;;;5108336;28;20205;-86
2023/11/12 07:42:18;;;;;;;2.33;1.10;;;;;;;;;;5106624;28;20240;-86
2023/11/12 07:44:45;;;;;;;1.50;1.40;;;;;;;;;;5094987;28;20268;-85
2023/11/12 07:47:12;;;;;;;1.03;0.90;;;;;;;;;;5114440;28;20210;-84
2023/11/12 07:49:39;;;;;;;0.87;0.87;;;;;;;;;;5113799;28;20204;-84
2023/11/12 07:52:07;;;;;;;2.83;1.73;;;;;;;;;;5114081;28;20207;-85
2023/11/12 07:54:35;;;;;;;1.60;1.00;;;;;;;;;;5113747;28;20203;-85
2023/11/12 07:57:02;;;;;;;3.43;2.90;;;;;;;;;;5113858;28;21342;-84
2023/11/12 07:59:29;;;;;;;2.70;2.50;;;;;;;;;;5113290;28;20246;-81
2023/11/12 08:01:57;;;;;;;12.17;9.70;;;;;;;;;;5107799;28;20224;-80
2023/11/12 08:04:23;;;;;;;5.63;5.10;;;;;;;;;;5105718;28;20207;-81
2023/11/12 08:06:50;;;;;;;2.63;1.20;;;;;;;;;;5094125;28;20204;-81
2023/11/12 08:09:19;;;;;;;1.50;1.07;;;;;;;;;;5092929;28;20208;-81
2023/11/12 08:11:47;;;;;;;1.93;1.10;;;;;;;;;;5112991;28;20206;-80
2023/11/12 08:14:14;;;;;;;1.80;1.00;;;;;;;;;;5099531;28;20208;-80
2023/11/12 08:16:41;;;;;;;0.70;0.70;;;;;;;;;;5093057;28;20208;-80
2023/11/12 08:19:09;;;;;;;2.43;0.80;;;;;;;;;;5091921;28;20232;-80
2023/11/12 08:21:35;;;;;;;5.27;1.70;;;;;;;;;;5099156;28;20195;-80
2023/11/12 08:24:05;;;;;;;10.00;6.40;;;;;;;;;;5098551;28;20776;-81
2023/11/12 08:26:38;;;;;;;4.13;2.93;;;;;;;;;;5092787;28;20200;-81
2023/11/12 08:29:06;;;;;;;2.30;1.57;;;;;;;;;;5106247;28;20200;-80
2023/11/12 08:31:34;;;;;;;1.07;1.03;;;;;;;;;;5091795;28;20208;-80
2023/11/12 08:34:04;;;;;;;2.57;1.20;;;;;;;;;;5105352;28;20207;-80
2023/11/12 08:36:30;;;;;;;4.20;1.00;;;;;;;;;;5103193;28;20321;-80
2023/11/12 08:38:58;;;;;;;1.37;1.17;;;;;;;;;;5095422;28;20641;-80
2023/11/12 08:41:25;;;;;;;0.60;0.60;;;;;;;;;;5102635;28;20588;-80
2023/11/12 08:43:53;;;;;;;1.17;0.90;;;;;;;;;;5108104;28;20808;-80
2023/11/12 08:46:20;;;;;;;0.93;0.93;;;;;;;;;;5103504;28;20203;-79
2023/11/12 08:48:47;;;;;;;0.70;0.70;;;;;;;;;;5108032;28;20218;-80
2023/11/12 08:51:13;;;;;;;2.73;1.00;;;;;;;;;;5092009;28;20204;-80
2023/11/12 08:53:41;;;;;;;1.07;1.00;;;;;;;;;;5091451;28;20682;-80
2023/11/12 08:56:08;;;;;;;0.83;0.83;;;;;;;;;;5091985;28;20204;-80
2023/11/12 08:58:35;;;;;;;0.90;0.90;;;;;;;;;;5092176;28;20684;-79
2023/11/12 09:01:08;;;;;;;3.20;0.90;;;;;;;;;;5103443;28;20203;-79
2023/11/12 09:03:35;;;;;;;1.10;0.77;;;;;;;;;;5112433;28;20650;-80
2023/11/12 09:06:02;;;;;;;1.20;1.10;;;;;;;;;;5098756;28;20204;-79
2023/11/12 09:08:29;;;;;;;1.00;0.77;;;;;;;;;;5097596;28;20207;-79
2023/11/12 09:10:56;;;;;;;1.63;0.90;;;;;;;;;;5099157;28;20196;-79
2023/11/12 09:13:23;;;;;;;1.60;0.70;;;;;;;;;;5111662;28;20207;-80
2023/11/12 09:15:49;;;;;;;4.23;2.43;;;;;;;;;;5106643;28;20200;-81
2023/11/12 09:18:19;;;;;;;2.33;1.03;;;;;;;;;;5111862;28;20290;-79
2023/11/12 09:20:46;;;;;;;0.73;0.73;;;;;;;;;;5110743;28;20566;-79
2023/11/12 09:23:13;;;;;;;1.67;1.20;;;;;;;;;;5099318;28;20679;-79
2023/11/12 09:25:40;;;;;;;153.20;85.07;;;;;;;;;;5111350;28;20205;-79
2023/11/12 09:28:07;;;;;;;57.63;36.40;;;;;;;;;;5108545;28;20208;-80
2023/11/12 09:30:34;;;;;;;8.07;4.13;;;;;;;;;;5109813;28;20191;-79
2023/11/12 09:33:06;;;;;;;46.10;19.63;;;;;;;;;;5111646;28;20196;-81
2023/11/12 09:35:34;;;;;;;18.10;8.13;;;;;;;;;;5111164;28;20693;-80
2023/11/12 09:38:04;;;;;;;17.90;7.53;;;;;;;;;;5098362;28;20212;-79
2023/11/12 09:40:31;;;;;;;16.40;7.10;;;;;;;;;;5098012;28;20203;-80
2023/11/12 09:42:59;;;;;;;6.63;1.80;;;;;;;;;;5096412;28;20252;-80
2023/11/12 09:45:26;;;;;;;4.70;1.93;;;;;;;;;;5090223;28;20621;-80
2023/11/12 09:48:04;;;;;;;55.57;27.60;;;;;;;;;;5105272;28;20204;-80
2023/11/12 09:50:31;;;;;;;77.80;34.20;;;;;;;;;;5100376;28;20287;-80
2023/11/12 09:53:03;;;;;;;47.17;19.10;;;;;;;;;;5090440;28;20212;-81
2023/11/12 09:55:30;;;;;;;47.10;18.00;;;;;;;;;;5089892;28;20223;-79
2023/11/12 09:57:57;;;;;;;29.37;11.40;;;;;;;;;;5090125;28;20193;-81
2023/11/12 10:00:24;;;;;;;34.70;13.43;;;;;;;;;;5103593;28;20197;-80
2023/11/12 10:02:52;;;;;;;16.17;4.83;;;;;;;;;;5103214;28;20253;-80
2023/11/12 10:05:18;;;;;;;85.67;41.97;;;;;;;;;;5096373;28;20192;-79
2023/11/12 10:07:46;;;;;;;15.10;6.23;;;;;;;;;;5098034;28;20202;-79
2023/11/12 10:10:24;;;;;;;7.30;3.97;;;;;;;;;;5090710;28;20196;-79
2023/11/12 10:12:52;;;;;;;34.20;17.77;;;;;;;;;;5104183;28;20294;-80
2023/11/12 10:15:23;;;;;;;18.93;10.80;;;;;;;;;;5090295;28;20250;-79
2023/11/12 10:17:51;;;;;;;87.40;46.90;;;;;;;;;;5091008;28;20233;-79
2023/11/12 10:20:21;;;;;;;6.67;3.53;;;;;;;;;;5099922;28;20259;-80
2023/11/12 10:22:48;;;;;;;1.57;1.47;;;;;;;;;;5107930;28;20252;-79
2023/11/12 10:25:15;;;;;;;1.50;1.40;;;;;;;;;;5090582;28;20200;-80
2023/11/12 10:27:56;;;;;;;1.63;1.40;;;;;;;;;;5103853;28;20204;-79
2023/11/12 10:30:24;;;;;;;3.80;1.60;;;;;;;;;;5093104;28;20284;-79
2023/11/12 10:32:51;;;;;;;12.93;8.13;;;;;;;;;;5095977;28;20238;-78
2023/11/12 10:35:25;;;;;;;33.50;20.13;;;;;;;;;;5098289;28;20200;-79
2023/11/12 10:37:56;;;;;;;18.07;10.07;;;;;;;;;;5090381;28;20283;-79
2023/11/12 10:40:23;;;;;;;2.40;1.70;;;;;;;;;;5103820;28;20662;-80
2023/11/12 10:42:50;;;;;;;6.13;4.13;;;;;;;;;;5102001;28;20268;-79
2023/11/12 10:45:18;;;;;;;17.90;12.77;;;;;;;;;;5095234;28;20204;-80
2023/11/12 10:47:47;;;;;;;10.23;5.97;;;;;;;;;;5090798;28;20220;-79
2023/11/12 10:50:15;;;;;;;6.60;4.30;;;;;;;;;;5092196;28;20254;-79
2023/11/12 10:52:42;;;;;;;4.27;2.10;;;;;;;;;;5101953;28;20199;-79
2023/11/12 10:55:10;;;;;;;5.73;3.00;;;;;;;;;;5108079;28;20291;-79
2023/11/12 10:57:37;;;;;;;20.53;11.23;;;;;;;;;;5103524;28;20199;-79
2023/11/12 11:00:10;;;;;;;16.03;11.60;;;;;;;;;;5097621;28;20205;-79
2023/11/12 11:02:38;;;;;;;2.93;1.83;;;;;;;;;;5094671;28;20313;-79
2023/11/12 11:05:06;;;;;;;5.17;3.07;;;;;;;;;;5107243;28;20196;-79
2023/11/12 11:07:36;;;;;;;13.43;3.73;;;;;;;;;;5106115;28;20588;-80
2023/11/12 11:10:04;;;;;;;1.20;1.10;;;;;;;;;;5095118;28;20206;-79
2023/11/12 11:12:31;;;;;;;4.27;1.80;;;;;;;;;;5107393;28;20198;-77
2023/11/12 11:15:38;;;;;;;4.13;3.13;;;;;;;;;;5097508;28;20212;-76
2023/11/12 11:18:07;;;;;;;3.90;2.30;;;;;;;;;;5112765;28;20201;-78
2023/11/12 11:21:11;;;;;;;1.70;1.60;;;;;;;;;;5108980;28;20665;-80
2023/11/12 11:23:38;;;;;;;3.67;3.37;;;;;;;;;;5113603;28;20218;-79
2023/11/12 11:26:26;;;;;;;2.03;1.77;;;;;;;;;;5094692;28;20675;-79
2023/11/12 11:29:13;;;;;;;5.87;1.90;;;;;;;;;;5093945;28;20287;-78
2023/11/12 11:31:41;;;;;;;1.77;1.40;;;;;;;;;;5093432;28;20217;-79
2023/11/12 11:34:12;;;;;;;1.60;1.50;;;;;;;;;;5098834;28;20209;-79
2023/11/12 11:36:40;;;;;;;1.53;1.40;;;;;;;;;;5101118;28;20680;-79
2023/11/12 11:39:26;;;;;;;5.00;1.77;;;;;;;;;;5113242;28;20263;-79
2023/11/12 11:42:12;;;;;;;2.13;1.70;;;;;;;;;;5099686;28;20256;-79
2023/11/12 11:44:44;;;;;;;1.30;1.20;;;;;;;;;;5101828;28;20222;-79
2023/11/12 11:47:13;;;;;;;2.07;1.33;;;;;;;;;;5110348;28;20285;-79
2023/11/12 11:49:42;;;;;;;2.27;1.10;;;;;;;;;;5093244;28;20242;-79
2023/11/12 11:52:08;;;;;;;1.90;1.43;;;;;;;;;;5101091;28;20212;-79
2023/11/12 11:54:36;;;;;;;3.10;2.27;;;;;;;;;;5106432;28;20315;-79
2023/11/12 11:57:05;;;;;;;1.50;1.40;;;;;;;;;;5093329;28;20200;-81
2023/11/12 11:59:35;;;;;;;2.33;1.70;;;;;;;;;;5094885;28;20201;-78
2023/11/12 12:02:15;;;;;;;1.90;1.50;;;;;;;;;;5106858;28;20205;-79
2023/11/12 12:04:47;;;;;;;2.37;1.20;;;;;;;;;;5093616;28;20224;-77
2023/11/12 12:07:24;;;;;;;2.83;1.67;;;;;;;;;;5102400;28;20208;-78
2023/11/12 12:09:52;;;;;;;4.27;3.30;;;;;;;;;;5099432;28;20196;-79
2023/11/12 12:12:19;;;;;;;1.37;1.23;;;;;;;;;;5113242;28;20194;-80
2023/11/12 12:14:46;;;;;;;5.03;3.10;;;;;;;;;;5112818;28;20212;-78
2023/11/12 12:17:13;;;;;;;2.27;2.07;;;;;;;;;;5113201;28;20668;-78
2023/11/12 12:19:41;;;;;;;4.67;1.53;;;;;;;;;;5108386;28;20226;-78
2023/11/12 12:22:09;;;;;;;4.10;1.47;;;;;;;;;;5104122;28;20217;-78
2023/11/12 12:24:37;;;;;;;1.93;1.10;;;;;;;;;;5098710;28;20233;-78
2023/11/12 12:27:09;;;;;;;1.53;1.10;;;;;;;;;;5113365;28;20693;-79
2023/11/12 12:29:38;;;;;;;5.40;2.10;;;;;;;;;;5106410;28;20209;-78
2023/11/12 12:32:16;;;;;;;1.53;1.43;;;;;;;;;;5106340;28;20301;-79
2023/11/12 12:34:43;;;;;;;4.80;2.03;;;;;;;;;;5106527;28;20198;-78
2023/11/12 12:37:12;;;;;;;6.87;4.30;;;;;;;;;;5112593;28;20202;-83
2023/11/12 12:39:49;;;;;;;5.17;2.37;;;;;;;;;;5100084;28;20218;-82
2023/11/12 12:42:18;;;;;;;1.13;1.13;;;;;;;;;;5099980;28;20230;-82
2023/11/12 12:44:49;;;;;;;2.30;1.70;;;;;;;;;;5097503;28;20322;-81
2023/11/12 12:47:30;;;;;;;4.43;2.27;;;;;;;;;;5100622;28;20680;-82
2023/11/12 12:49:58;;;;;;;5.70;2.10;;;;;;;;;;5108407;28;20284;-81
2023/11/12 12:52:26;;;;;;;1.40;1.30;;;;;;;;;;5103159;28;20565;-81
2023/11/12 12:54:53;;;;;;;1.50;1.40;;;;;;;;;;5111984;28;20224;-82
2023/11/12 12:57:23;;;;;;;3.17;2.10;;;;;;;;;;5101577;28;20197;-81
2023/11/12 12:59:51;;;;;;;2.80;2.07;;;;;;;;;;5095727;28;20593;-81
2023/11/12 13:02:19;;;;;;;3.70;1.70;;;;;;;;;;5100540;28;20261;-81
2023/11/12 13:04:47;;;;;;;4.27;1.30;;;;;;;;;;5111867;28;20258;-81
2023/11/12 13:07:15;;;;;;;5.77;3.57;;;;;;;;;;5103077;28;20280;-82
2023/11/12 13:09:44;;;;;;;7.57;4.53;;;;;;;;;;5107915;28;20296;-82
2023/11/12 13:12:13;;;;;;;6.80;5.37;;;;;;;;;;5112293;28;20298;-81
2023/11/12 13:14:41;;;;;;;7.50;5.10;;;;;;;;;;5098234;28;20649;-82
2023/11/12 13:17:08;;;;;;;8.57;5.60;;;;;;;;;;5111945;28;20605;-83
2023/11/12 13:19:35;;;;;;;4.37;3.97;;;;;;;;;;5107646;28;20297;-81
2023/11/12 13:22:06;;;;;;;4.67;2.67;;;;;;;;;;5091968;28;20634;-82
2023/11/12 13:24:34;;;;;;;2.60;2.33;;;;;;;;;;5096582;28;20216;-82
2023/11/12 13:27:06;;;;;;;3.03;2.77;;;;;;;;;;5099955;28;20236;-81
2023/11/12 13:29:33;;;;;;;3.63;1.77;;;;;;;;;;5097355;28;20203;-83
2023/11/12 13:31:59;;;;;;;4.10;1.77;;;;;;;;;;5111799;28;20205;-82
2023/11/12 13:34:26;;;;;;;3.50;3.20;;;;;;;;;;5091818;28;20202;-81
2023/11/12 13:36:53;;;;;;;8.10;7.30;;;;;;;;;;5104060;28;20202;-82
2023/11/12 13:39:20;;;;;;;6.50;5.90;;;;;;;;;;5097714;28;20236;-82
2023/11/12 13:41:49;;;;;;;5.73;5.13;;;;;;;;;;5107512;28;20650;-85
2023/11/12 13:44:22;;;;;;;5.70;3.00;;;;;;;;;;5108954;28;20217;-82
2023/11/12 13:46:51;;;;;;;6.20;2.60;;;;;;;;;;5096361;28;20205;-82
2023/11/12 13:49:19;;;;;;;7.37;4.07;;;;;;;;;;5091207;28;20607;-81
2023/11/12 13:51:46;;;;;;;5.73;3.00;;;;;;;;;;5104632;28;20205;-82
2023/11/12 13:54:14;;;;;;;10.97;3.97;;;;;;;;;;5090627;28;20212;-82
2023/11/12 13:56:41;;;;;;;4.43;3.40;;;;;;;;;;5107298;28;20234;-82
2023/11/12 13:59:10;;;;;;;6.13;4.33;;;;;;;;;;5111090;28;20209;-81
2023/11/12 14:01:40;;;;;;;6.03;2.87;;;;;;;;;;5111035;28;20210;-81
2023/11/12 14:04:09;;;;;;;5.63;4.40;;;;;;;;;;5111254;28;20300;-81
2023/11/12 14:06:38;;;;;;;2.30;2.10;;;;;;;;;;5093509;28;20593;-82
2023/11/12 14:09:08;;;;;;;5.03;3.00;;;;;;;;;;5091368;28;20638;-81
2023/11/12 14:11:36;;;;;;;4.20;3.00;;;;;;;;;;5091544;28;20198;-81
2023/11/12 14:14:05;;;;;;;3.20;2.40;;;;;;;;;;5090315;28;20694;-81
2023/11/12 14:16:36;;;;;;;2.20;1.73;;;;;;;;;;5090839;28;20598;-81
2023/11/12 14:19:10;;;;;;;18.57;13.53;;;;;;;;;;5090732;28;20298;-81
2023/11/12 14:21:38;;;;;;;38.37;25.43;;;;;;;;;;5091156;28;20577;-82
2023/11/12 14:24:06;;;;;;;48.97;31.87;;;;;;;;;;5103887;28;20222;-82
2023/11/12 14:26:33;;;;;;;6.60;5.63;;;;;;;;;;5098589;28;20715;-81
2023/11/12 14:29:01;;;;;;;5.20;2.83;;;;;;;;;;5094843;28;20204;-82
2023/11/12 14:31:30;;;;;;;2.30;1.47;;;;;;;;;;5114895;28;20200;-81
2023/11/12 14:33:57;;;;;;;1.87;1.50;;;;;;;;;;5115092;28;20210;-81
2023/11/12 14:36:26;;;;;;;4.73;4.20;;;;;;;;;;5115109;28;20228;-81
2023/11/12 14:38:53;;;;;;;31.23;17.27;;;;;;;;;;5098391;28;20211;-84
2023/11/12 14:41:20;;;;;;;144.33;64.83;;;;;;;;;;5101004;28;20261;-82
2023/11/12 14:43:47;;;;;;;58.23;29.27;;;;;;;;;;5111686;28;20234;-84
2023/11/12 14:46:18;;;;;;;89.90;45.00;;;;;;;;;;5094661;28;20694;-84
2023/11/12 14:48:48;;;;;;;87.47;45.60;;;;;;;;;;5108330;28;20265;-82